Time;durP1;ratioP1;P1;durP2;ratioP2;P2;SDS_P1;SDS_P2;PMS_P1;PMS_P2;Temp;Humidity;BMP_temperature;BMP_pressure;BME280_temperature;BME280_humidity;BME280_pressure;Samples;Min_cycle;Max_cycle;Signal;HPM_P1;HPM_P2
2021/07/26 00:00:12;;;;;;;3.35;3.08;;;;;;;19.61;91.96;98201.97;4947842;28;103639;-60
2021/07/26 00:02:42;;;;;;;3.20;2.90;;;;;;;19.61;91.43;98196.59;4941201;28;103314;-59
2021/07/26 00:05:11;;;;;;;3.90;3.60;;;;;;;19.60;92.23;98194.94;4955808;28;103858;-60
2021/07/26 00:07:39;;;;;;;3.03;2.83;;;;;;;19.60;91.69;98187.72;4948911;28;102696;-60
2021/07/26 00:10:09;;;;;;;2.88;2.67;;;;;;;19.64;91.73;98185.53;4958907;28;103577;-60
2021/07/26 00:12:37;;;;;;;4.53;3.75;;;;;;;19.54;92.25;98184.91;4936219;28;105655;-60
2021/07/26 00:15:08;;;;;;;3.92;3.63;;;;;;;19.49;92.35;98187.31;4954144;28;102719;-59
2021/07/26 00:17:36;;;;;;;6.18;4.32;;;;;;;19.46;92.73;98179.63;4958483;28;102836;-60
2021/07/26 00:20:05;;;;;;;4.38;3.90;;;;;;;19.44;93.35;98187.03;4958573;28;104591;-59
2021/07/26 00:22:33;;;;;;;6.97;4.93;;;;;;;19.44;93.08;98179.81;4958823;28;104349;-60
2021/07/26 00:25:01;;;;;;;4.78;4.13;;;;;;;19.43;92.96;98190.69;4952165;28;103311;-59
2021/07/26 00:27:31;;;;;;;3.60;3.30;;;;;;;19.44;92.95;98185.19;4958888;28;102608;-60
2021/07/26 00:29:59;;;;;;;3.97;3.67;;;;;;;19.40;93.32;98183.84;4937070;28;104059;-60
2021/07/26 00:32:29;;;;;;;3.95;3.65;;;;;;;19.40;93.64;98188.38;4953634;28;103816;-59
2021/07/26 00:34:57;;;;;;;4.63;4.22;;;;;;;19.41;92.60;98180.19;4960177;28;103735;-59
2021/07/26 00:37:26;;;;;;;4.10;3.80;;;;;;;19.42;93.08;98186.38;4930684;28;102830;-59
2021/07/26 00:39:54;;;;;;;4.38;4.00;;;;;;;19.42;93.18;98192.56;4956894;28;104514;-60
2021/07/26 00:42:22;;;;;;;3.88;3.58;;;;;;;19.46;92.85;98193.03;4953112;28;103361;-59
2021/07/26 00:44:52;;;;;;;4.05;3.75;;;;;;;19.47;92.89;98194.69;4955674;28;105429;-59
2021/07/26 00:47:20;;;;;;;5.13;4.53;;;;;;;19.45;92.62;98196.72;4959548;28;102669;-59
2021/07/26 00:49:48;;;;;;;5.28;4.57;;;;;;;19.45;92.88;98204.78;4946664;28;104467;-59
2021/07/26 00:52:17;;;;;;;4.20;3.88;;;;;;;19.43;92.84;98196.06;4949867;28;103175;-60
2021/07/26 00:54:45;;;;;;;3.75;3.45;;;;;;;19.41;92.84;98200.78;4957120;28;102684;-59
2021/07/26 00:57:13;;;;;;;4.65;4.25;;;;;;;19.31;92.97;98205.50;4937652;28;102835;-60
2021/07/26 00:59:41;;;;;;;5.07;4.68;;;;;;;19.28;93.60;98208.53;4947664;28;103325;-60
2021/07/26 01:02:11;;;;;;;4.40;4.00;;;;;;;19.31;93.19;98202.81;4959109;28;103206;-60
2021/07/26 01:04:39;;;;;;;5.75;5.20;;;;;;;19.25;93.36;98198.19;4959302;28;102719;-60
2021/07/26 01:07:08;;;;;;;7.50;5.13;;;;;;;19.29;93.18;98208.34;4939959;28;102639;-59
2021/07/26 01:09:36;;;;;;;4.35;4.00;;;;;;;19.31;92.92;98200.16;4943595;28;104757;-59
2021/07/26 01:12:05;;;;;;;4.18;3.78;;;;;;;19.30;92.79;98203.81;4955610;28;104019;-59
2021/07/26 01:14:34;;;;;;;4.43;4.03;;;;;;;19.22;93.47;98201.22;4951298;28;102836;-60
2021/07/26 01:17:03;;;;;;;5.00;4.35;;;;;;;19.19;93.22;98202.41;4957230;28;102753;-60
2021/07/26 01:19:32;;;;;;;4.78;4.38;;;;;;;19.16;93.95;98197.38;4959024;28;103461;-59
2021/07/26 01:22:02;;;;;;;5.80;5.25;;;;;;;19.14;93.39;98203.94;4951813;28;103952;-60
2021/07/26 01:24:30;;;;;;;4.30;3.90;;;;;;;19.13;93.76;98212.97;4956586;28;102698;-60
2021/07/26 01:26:58;;;;;;;5.20;4.70;;;;;;;19.08;93.80;98211.66;4962390;28;102753;-60
2021/07/26 01:29:26;;;;;;;4.53;4.13;;;;;;;19.08;94.05;98206.31;4938252;28;103512;-60
2021/07/26 01:31:54;;;;;;;4.95;4.50;;;;;;;19.06;94.01;98213.66;4956748;28;105720;-60
2021/07/26 01:34:22;;;;;;;4.07;3.78;;;;;;;19.01;93.97;98216.03;4959805;28;102835;-60
2021/07/26 01:36:50;;;;;;;3.72;3.42;;;;;;;19.07;93.66;98203.78;4959401;28;102844;-59
2021/07/26 01:39:19;;;;;;;3.78;3.47;;;;;;;19.09;93.40;98197.25;4961403;28;103329;-60
2021/07/26 01:41:48;;;;;;;4.35;4.05;;;;;;;19.14;93.29;98206.63;4938746;28;104363;-60
2021/07/26 01:44:16;;;;;;;4.22;3.85;;;;;;;19.14;93.12;98203.94;4938472;28;103229;-60
2021/07/26 01:46:52;;;;;;;4.43;4.03;;;;;;;19.16;92.71;98199.22;4942398;28;104046;-60
2021/07/26 01:49:42;;;;;;;4.53;4.13;;;;;;;19.15;93.11;98201.06;4948340;28;103376;-60
2021/07/26 01:52:12;;;;;;;3.30;3.00;;;;;;;19.11;92.96;98200.56;4957557;28;103789;-60
2021/07/26 01:54:42;;;;;;;4.95;4.45;;;;;;;19.04;92.65;98204.97;4961671;28;103057;-60
2021/07/26 01:57:10;;;;;;;5.97;4.88;;;;;;;18.98;93.36;98199.50;4955719;28;102612;-60
2021/07/26 01:59:39;;;;;;;7.25;5.28;;;;;;;18.71;95.08;98206.16;4957398;28;104457;-60
2021/07/26 02:02:07;;;;;;;4.22;3.83;;;;;;;18.69;95.86;98202.00;4956940;28;103216;-60
2021/07/26 02:04:35;;;;;;;4.20;3.80;;;;;;;18.70;96.38;98200.97;4961071;28;103072;-62
2021/07/26 02:07:06;;;;;;;3.33;3.03;;;;;;;18.83;95.36;98199.41;4944698;28;102728;-63
2021/07/26 02:09:34;;;;;;;3.63;3.33;;;;;;;18.91;94.53;98193.19;4958546;28;104371;-63
2021/07/26 02:12:05;;;;;;;3.42;3.13;;;;;;;18.96;94.39;98202.34;4960440;28;103202;-63
2021/07/26 02:14:33;;;;;;;3.50;3.20;;;;;;;18.98;93.72;98200.31;4958474;28;102637;-63
2021/07/26 02:17:01;;;;;;;3.33;3.03;;;;;;;18.99;93.33;98202.00;4959462;28;102609;-63
2021/07/26 02:19:29;;;;;;;4.20;3.50;;;;;;;19.00;93.90;98209.00;4958113;28;103598;-63
2021/07/26 02:21:57;;;;;;;3.97;3.58;;;;;;;19.01;94.00;98205.34;4955222;28;103748;-63
2021/07/26 02:24:26;;;;;;;3.97;3.67;;;;;;;19.00;94.12;98203.66;4960745;28;102640;-62
2021/07/26 02:26:54;;;;;;;3.30;3.00;;;;;;;19.00;93.50;98202.84;4957293;28;103287;-62
2021/07/26 02:29:23;;;;;;;4.35;3.10;;;;;;;18.99;93.30;98202.00;4952662;28;103384;-63
2021/07/26 02:31:51;;;;;;;4.68;3.10;;;;;;;18.98;93.51;98204.84;4955514;28;103476;-63
2021/07/26 02:34:19;;;;;;;4.18;3.78;;;;;;;18.98;93.46;98211.03;4940621;28;102666;-62
2021/07/26 02:36:47;;;;;;;3.60;3.33;;;;;;;18.93;94.19;98221.44;4955660;28;102737;-63
2021/07/26 02:39:15;;;;;;;6.15;4.55;;;;;;;18.91;93.96;98219.94;4960750;28;103243;-62
2021/07/26 02:41:44;;;;;;;4.03;3.63;;;;;;;18.91;94.28;98225.31;4942134;28;106384;-62
2021/07/26 02:44:12;;;;;;;3.47;3.17;;;;;;;18.87;94.09;98224.81;4946667;28;102691;-62
2021/07/26 02:46:41;;;;;;;6.50;4.07;;;;;;;18.87;93.99;98218.63;4959705;28;102599;-62
2021/07/26 02:49:09;;;;;;;8.35;4.30;;;;;;;18.80;94.90;98221.16;4952792;28;103317;-62
2021/07/26 02:51:37;;;;;;;3.47;3.20;;;;;;;18.75;95.11;98220.03;4957636;28;104370;-62
2021/07/26 02:54:05;;;;;;;4.93;4.43;;;;;;;18.74;94.98;98224.53;4935244;28;102677;-62
2021/07/26 02:56:33;;;;;;;4.72;3.65;;;;;;;18.69;95.54;98232.25;4950206;28;102696;-62
2021/07/26 02:59:01;;;;;;;3.67;3.38;;;;;;;18.71;95.41;98224.88;4960704;28;103388;-63
2021/07/26 03:01:32;;;;;;;4.80;4.30;;;;;;;18.76;95.01;98233.22;4959212;28;103146;-63
2021/07/26 03:04:02;;;;;;;4.72;4.22;;;;;;;18.81;95.28;98235.38;4956913;28;102773;-63
2021/07/26 03:06:30;;;;;;;4.63;4.10;;;;;;;18.81;95.21;98230.00;4960996;28;102765;-63
2021/07/26 03:08:58;;;;;;;3.45;3.25;;;;;;;18.83;95.17;98236.03;4955590;28;103385;-63
2021/07/26 03:11:26;;;;;;;3.92;3.53;;;;;;;18.85;95.21;98232.19;4940263;28;103197;-63
2021/07/26 03:13:54;;;;;;;4.95;4.03;;;;;;;18.82;95.20;98234.38;4949419;28;102607;-63
2021/07/26 03:16:22;;;;;;;5.15;3.72;;;;;;;18.81;95.23;98230.84;4955715;28;104084;-63
2021/07/26 03:18:50;;;;;;;4.65;4.00;;;;;;;18.82;95.33;98248.59;4956131;28;103899;-63
2021/07/26 03:21:20;;;;;;;4.68;4.28;;;;;;;18.80;95.28;98245.25;4936252;28;104409;-63
2021/07/26 03:23:48;;;;;;;3.25;2.95;;;;;;;18.77;95.77;98247.44;4937970;28;103164;-62
2021/07/26 03:26:16;;;;;;;6.05;5.20;;;;;;;18.72;95.54;98253.31;4952240;28;102665;-61
2021/07/26 03:28:45;;;;;;;5.70;4.95;;;;;;;18.64;96.39;98250.66;4918119;28;104698;-61
2021/07/26 03:31:13;;;;;;;4.75;4.35;;;;;;;18.67;96.16;98255.66;4954742;28;103194;-61
2021/07/26 03:33:44;;;;;;;3.97;3.67;;;;;;;18.74;95.75;98251.28;4960590;28;103040;-61
2021/07/26 03:36:14;;;;;;;3.90;3.38;;;;;;;18.80;95.77;98255.97;4958629;28;102604;-62
2021/07/26 03:38:44;;;;;;;4.97;4.47;;;;;;;18.83;95.53;98258.28;4939122;28;104587;-61
2021/07/26 03:41:12;;;;;;;4.00;3.60;;;;;;;18.79;95.84;98262.31;4954054;28;103241;-62
2021/07/26 03:43:40;;;;;;;5.85;5.25;;;;;;;18.77;95.70;98256.31;4958843;28;102676;-62
2021/07/26 03:46:08;;;;;;;4.53;4.13;;;;;;;18.78;95.93;98257.94;4940217;28;102715;-61
2021/07/26 03:48:36;;;;;;;4.13;3.80;;;;;;;18.79;95.33;98270.34;4951537;28;104441;-61
2021/07/26 03:51:04;;;;;;;4.50;4.10;;;;;;;18.82;95.65;98264.63;4921554;28;103202;-62
2021/07/26 03:53:33;;;;;;;5.38;4.90;;;;;;;18.86;95.05;98262.47;4920942;28;102860;-63
2021/07/26 03:56:02;;;;;;;8.02;6.18;;;;;;;18.76;95.20;98273.34;4938849;28;103254;-63
2021/07/26 03:58:30;;;;;;;5.13;4.45;;;;;;;18.78;96.45;98257.94;4956665;28;103238;-63
2021/07/26 04:00:58;;;;;;;7.32;5.53;;;;;;;18.75;94.88;98257.50;4937942;28;103137;-65
2021/07/26 04:03:30;;;;;;;5.13;4.68;;;;;;;18.80;94.72;98258.63;4948519;28;102900;-65
2021/07/26 04:06:03;;;;;;;5.25;4.75;;;;;;;18.82;94.47;98251.25;4951337;28;102806;-65
2021/07/26 04:08:33;;;;;;;5.28;4.50;;;;;;;18.84;94.06;98248.41;4956385;28;103338;-64
2021/07/26 04:11:07;;;;;;;5.70;5.18;;;;;;;18.83;94.54;98250.25;4955806;28;103237;-63
2021/07/26 04:13:37;;;;;;;4.47;4.07;;;;;;;18.81;94.51;98252.25;4954016;28;102636;-63
2021/07/26 04:16:05;;;;;;;4.32;3.92;;;;;;;18.90;93.71;98256.56;4953611;28;102683;-63
2021/07/26 04:18:34;;;;;;;7.00;4.82;;;;;;;18.86;94.12;98255.25;4929720;28;106218;-63
2021/07/26 04:21:08;;;;;;;5.18;4.72;;;;;;;18.80;94.57;98261.31;4949589;28;104304;-63
2021/07/26 04:23:36;;;;;;;6.72;6.00;;;;;;;18.76;94.16;98259.13;4956122;28;103566;-62
2021/07/26 04:26:06;;;;;;;7.18;4.78;;;;;;;18.78;94.02;98252.59;4952756;28;102774;-63
2021/07/26 04:28:34;;;;;;;9.15;5.05;;;;;;;18.81;93.66;98254.94;4957550;28;103318;-64
2021/07/26 04:31:02;;;;;;;8.90;5.60;;;;;;;18.80;93.56;98247.09;4955127;28;104375;-63
2021/07/26 04:33:30;;;;;;;6.07;5.30;;;;;;;18.84;93.29;98249.25;4936900;28;102798;-63
2021/07/26 04:36:01;;;;;;;6.30;4.97;;;;;;;18.87;93.03;98259.59;4955769;28;102634;-59
2021/07/26 04:38:29;;;;;;;5.15;4.65;;;;;;;18.84;93.01;98251.91;4930083;28;103392;-60
2021/07/26 04:40:57;;;;;;;5.78;5.10;;;;;;;18.82;93.40;98255.78;4957520;28;104624;-60
2021/07/26 04:43:27;;;;;;;5.15;4.47;;;;;;;18.90;91.98;98256.56;4959015;28;102576;-60
2021/07/26 04:45:56;;;;;;;6.18;4.72;;;;;;;18.93;91.89;98256.22;4940453;28;103638;-60
2021/07/26 04:48:24;;;;;;;4.00;3.70;;;;;;;19.01;91.39;98258.88;4953836;28;103380;-60
2021/07/26 04:50:52;;;;;;;4.50;4.10;;;;;;;19.06;91.23;98251.16;4945770;28;103354;-60
2021/07/26 04:53:20;;;;;;;5.65;4.65;;;;;;;18.95;91.21;98259.56;4953880;28;102681;-60
2021/07/26 04:55:49;;;;;;;4.50;4.20;;;;;;;19.08;91.28;98253.66;4953544;28;102647;-60
2021/07/26 04:58:17;;;;;;;4.53;4.13;;;;;;;19.04;90.98;98263.88;4946121;28;103280;-59
2021/07/26 05:00:46;;;;;;;4.50;4.10;;;;;;;19.04;91.48;98273.75;4946419;28;103274;-59
2021/07/26 05:03:14;;;;;;;4.82;4.10;;;;;;;19.13;90.40;98267.34;4944263;28;103044;-61
2021/07/26 05:05:43;;;;;;;6.55;4.70;;;;;;;19.14;89.70;98268.19;4949899;28;104860;-60
2021/07/26 05:08:11;;;;;;;4.05;3.65;;;;;;;19.19;89.41;98265.81;4955604;28;104419;-60
2021/07/26 05:10:39;;;;;;;5.47;4.55;;;;;;;19.19;89.34;98266.66;4951185;28;103173;-60
2021/07/26 05:13:07;;;;;;;5.53;4.32;;;;;;;19.19;89.45;98268.50;4952768;28;102636;-60
2021/07/26 05:15:35;;;;;;;3.75;3.25;;;;;;;19.22;89.37;98268.16;4955970;28;103896;-60
2021/07/26 05:18:05;;;;;;;3.80;3.50;;;;;;;19.25;89.46;98274.00;4950204;28;103282;-62
2021/07/26 05:20:33;;;;;;;3.70;3.40;;;;;;;19.28;89.51;98283.50;4928560;28;103721;-60
2021/07/26 05:23:16;;;;;;;3.22;2.92;;;;;;;19.30;88.87;98284.16;4948605;28;102814;-60
2021/07/26 05:25:49;;;;;;;3.35;3.00;;;;;;;19.35;88.74;98287.16;4915024;28;102903;-60
2021/07/26 05:28:17;;;;;;;3.53;3.22;;;;;;;19.35;89.38;98287.16;4950420;28;104437;-61
2021/07/26 05:30:48;;;;;;;5.05;3.42;;;;;;;19.34;89.42;98291.66;4951948;28;103219;-61
2021/07/26 05:33:18;;;;;;;3.47;3.17;;;;;;;19.44;89.58;98286.13;4954585;28;103070;-61
2021/07/26 05:35:47;;;;;;;3.40;3.20;;;;;;;19.52;89.40;98291.44;4931208;28;102624;-60
2021/07/26 05:38:15;;;;;;;4.63;3.75;;;;;;;19.55;88.99;98296.44;4949869;28;104508;-60
2021/07/26 05:40:43;;;;;;;4.78;4.32;;;;;;;19.45;89.12;98293.16;4943818;28;104471;-61
2021/07/26 05:43:11;;;;;;;7.35;4.50;;;;;;;19.41;89.43;98286.47;4952906;28;102709;-61
2021/07/26 05:45:39;;;;;;;5.50;4.75;;;;;;;19.38;89.31;98287.66;4943926;28;103032;-60
2021/07/26 05:48:08;;;;;;;3.58;3.28;;;;;;;19.57;89.42;98291.72;4933355;28;106838;-60
2021/07/26 05:50:37;;;;;;;6.10;3.95;;;;;;;19.75;88.67;98284.25;4952403;28;104394;-60
2021/07/26 05:53:05;;;;;;;3.80;3.50;;;;;;;19.92;88.21;98285.81;4948940;28;102670;-61
2021/07/26 05:55:33;;;;;;;5.15;4.00;;;;;;;19.91;87.36;98284.13;4953416;28;102870;-60
2021/07/26 05:58:04;;;;;;;4.72;3.40;;;;;;;20.08;86.25;98282.16;4935585;28;104423;-63
2021/07/26 06:00:41;;;;;;;6.80;4.88;;;;;;;20.05;86.56;98280.66;4953477;28;104407;-63
2021/07/26 06:03:09;;;;;;;4.90;4.40;;;;;;;20.19;87.05;98281.72;4953850;28;103850;-62
2021/07/26 06:05:39;;;;;;;6.07;4.80;;;;;;;20.17;87.47;98284.59;4957287;28;102887;-62
2021/07/26 06:08:07;;;;;;;6.38;5.13;;;;;;;20.13;87.01;98277.06;4928590;28;105052;-62
2021/07/26 06:10:36;;;;;;;5.60;4.15;;;;;;;20.17;86.87;98273.84;4956411;28;103385;-62
2021/07/26 06:13:05;;;;;;;5.72;4.60;;;;;;;20.17;86.83;98273.84;4957728;28;103034;-62
2021/07/26 06:15:33;;;;;;;7.03;5.25;;;;;;;20.26;86.34;98277.34;4956791;28;102667;-63
2021/07/26 06:18:01;;;;;;;7.35;5.40;;;;;;;20.18;87.47;98280.06;4952512;28;103429;-63
2021/07/26 06:20:31;;;;;;;5.63;4.05;;;;;;;20.46;86.88;98274.97;4937195;28;103300;-63
2021/07/26 06:23:01;;;;;;;6.43;4.35;;;;;;;20.59;85.49;98284.03;4934897;28;102753;-61
2021/07/26 06:25:29;;;;;;;6.10;4.50;;;;;;;20.71;85.45;98287.09;4949630;28;102609;-62
2021/07/26 06:27:57;;;;;;;5.05;4.25;;;;;;;20.87;85.03;98286.91;4956472;28;103280;-61
2021/07/26 06:30:25;;;;;;;4.60;4.18;;;;;;;20.91;84.33;98288.22;4936274;28;104170;-61
2021/07/26 06:32:53;;;;;;;4.55;3.75;;;;;;;21.03;84.09;98286.72;4959102;28;102603;-61
2021/07/26 06:35:21;;;;;;;4.68;4.28;;;;;;;21.08;83.21;98289.69;4956583;28;102662;-62
2021/07/26 06:37:49;;;;;;;6.18;4.93;;;;;;;20.61;83.93;98294.56;4948105;28;104397;-63
2021/07/26 06:40:19;;;;;;;6.15;4.10;;;;;;;20.98;83.95;98293.66;4957832;28;103139;-62
2021/07/26 06:42:48;;;;;;;4.60;4.20;;;;;;;21.22;83.17;98296.91;4939932;28;102597;-63
2021/07/26 06:45:16;;;;;;;5.57;4.03;;;;;;;21.43;81.66;98303.38;4957646;28;102725;-62
2021/07/26 06:47:44;;;;;;;5.82;4.63;;;;;;;21.34;81.46;98295.41;4956414;28;104526;-63
2021/07/26 06:50:13;;;;;;;4.97;4.22;;;;;;;21.63;81.20;98293.69;4958301;28;103198;-63
2021/07/26 06:52:42;;;;;;;3.63;3.30;;;;;;;21.80;81.24;98292.41;4958013;28;103303;-63
2021/07/26 06:55:11;;;;;;;3.83;3.53;;;;;;;21.66;81.26;98299.50;4934529;28;102763;-63
2021/07/26 06:57:40;;;;;;;3.65;3.35;;;;;;;21.68;80.07;98302.00;4955223;28;103459;-61
2021/07/26 07:00:10;;;;;;;3.90;3.50;;;;;;;21.67;79.87;98301.16;4953392;28;103259;-60
2021/07/26 07:02:38;;;;;;;8.68;4.40;;;;;;;21.74;80.64;98291.31;4958861;28;102574;-61
2021/07/26 07:05:06;;;;;;;5.35;4.20;;;;;;;21.85;79.95;98304.25;4935905;28;103155;-61
2021/07/26 07:07:35;;;;;;;4.35;3.42;;;;;;;22.19;78.86;98306.28;4958521;28;103745;-61
2021/07/26 07:10:03;;;;;;;4.82;4.20;;;;;;;22.22;79.06;98311.28;4957796;28;103407;-61
2021/07/26 07:12:32;;;;;;;5.30;4.38;;;;;;;22.06;77.48;98311.53;4940914;28;104659;-61
2021/07/26 07:15:01;;;;;;;8.82;4.32;;;;;;;22.16;79.46;98317.41;4956024;28;102993;-61
2021/07/26 07:17:29;;;;;;;7.53;4.10;;;;;;;22.07;79.43;98313.19;4947835;28;105070;-61
2021/07/26 07:20:03;;;;;;;3.95;3.50;;;;;;;22.45;76.25;98314.56;4947284;28;103088;-62
2021/07/26 07:22:31;;;;;;;4.25;3.88;;;;;;;22.71;77.51;98313.16;4945296;28;102590;-61
2021/07/26 07:25:00;;;;;;;4.10;3.70;;;;;;;22.94;75.42;98311.00;4935474;28;103009;-61
2021/07/26 07:27:28;;;;;;;4.18;3.85;;;;;;;23.03;74.96;98320.59;4952158;28;103307;-62
2021/07/26 07:30:16;;;;;;;3.22;2.92;;;;;;;23.45;73.19;98309.63;4933564;28;105993;-62
2021/07/26 07:32:44;;;;;;;3.10;2.80;;;;;;;23.52;72.17;98305.06;4959057;28;103039;-61
2021/07/26 07:35:13;;;;;;;3.45;3.15;;;;;;;23.97;71.92;98311.63;4956735;28;102809;-61
2021/07/26 07:37:41;;;;;;;4.32;3.83;;;;;;;23.83;73.07;98312.63;4939749;28;104277;-62
2021/07/26 07:40:10;;;;;;;4.20;3.78;;;;;;;24.16;72.42;98318.16;4956564;28;103203;-61
2021/07/26 07:42:39;;;;;;;5.35;3.90;;;;;;;24.69;71.22;98318.97;4955216;28;102644;-62
2021/07/26 07:45:08;;;;;;;5.80;4.00;;;;;;;24.54;70.18;98319.19;4928636;28;102800;-62
2021/07/26 07:47:38;;;;;;;4.53;4.13;;;;;;;24.70;68.91;98318.75;4947339;28;103499;-62
2021/07/26 07:50:07;;;;;;;5.30;3.10;;;;;;;24.91;68.32;98323.13;4931350;28;104298;-62
2021/07/26 07:52:35;;;;;;;3.90;3.60;;;;;;;25.16;68.76;98331.38;4954572;28;102974;-62
2021/07/26 07:55:04;;;;;;;4.80;3.60;;;;;;;25.29;67.18;98329.47;4921629;28;102692;-62
2021/07/26 07:57:35;;;;;;;5.45;3.75;;;;;;;25.53;66.68;98329.84;4938375;28;103711;-62
2021/07/26 08:00:04;;;;;;;5.95;4.13;;;;;;;25.55;64.12;98331.28;4934225;28;103234;-62
2021/07/26 08:02:33;;;;;;;4.63;3.97;;;;;;;25.64;64.23;98321.88;4952665;28;102829;-62
2021/07/26 08:05:03;;;;;;;4.75;3.40;;;;;;;25.81;64.29;98330.31;4956411;28;102871;-62
2021/07/26 08:07:32;;;;;;;3.65;2.90;;;;;;;26.13;62.87;98329.31;4934054;28;103434;-60
2021/07/26 08:10:00;;;;;;;3.33;3.00;;;;;;;25.66;59.84;98333.31;4954335;28;103201;-60
2021/07/26 08:12:28;;;;;;;5.03;3.90;;;;;;;26.53;61.05;98340.69;4938772;28;103063;-60
2021/07/26 08:14:56;;;;;;;5.53;3.50;;;;;;;26.72;61.96;98328.03;4959042;28;102958;-60
2021/07/26 08:17:24;;;;;;;4.45;3.88;;;;;;;26.98;60.13;98338.63;4957287;28;103421;-60
2021/07/26 08:19:53;;;;;;;4.38;3.83;;;;;;;26.51;61.78;98331.97;4955947;28;103199;-61
2021/07/26 08:22:22;;;;;;;4.78;3.50;;;;;;;26.55;61.80;98344.03;4956687;28;102772;-61
2021/07/26 08:24:51;;;;;;;3.70;3.40;;;;;;;26.83;60.41;98336.31;4945815;28;102750;-61
2021/07/26 08:27:19;;;;;;;4.00;3.10;;;;;;;27.19;59.87;98334.69;4952649;28;103928;-61
2021/07/26 08:29:48;;;;;;;3.65;2.97;;;;;;;26.77;60.20;98337.16;4957298;28;104310;-61
2021/07/26 08:32:16;;;;;;;3.25;2.95;;;;;;;26.79;60.19;98334.25;4959327;28;103095;-61
2021/07/26 08:34:44;;;;;;;3.30;3.00;;;;;;;26.85;60.96;98339.63;4957067;28;102627;-61
2021/07/26 08:37:12;;;;;;;4.25;3.60;;;;;;;27.00;60.16;98342.78;4953278;28;104507;-61
2021/07/26 08:39:41;;;;;;;4.72;3.50;;;;;;;27.37;59.70;98338.22;4951220;28;104287;-61
2021/07/26 08:42:10;;;;;;;4.47;3.35;;;;;;;27.96;57.14;98332.06;4953476;28;102580;-61
2021/07/26 08:44:38;;;;;;;6.13;3.28;;;;;;;28.57;55.14;98323.66;4953977;28;103001;-61
2021/07/26 08:47:07;;;;;;;3.88;3.08;;;;;;;28.49;52.44;98320.44;4934447;28;104006;-61
2021/07/26 08:49:35;;;;;;;3.53;2.60;;;;;;;28.65;53.94;98311.63;4949291;28;104348;-61
2021/07/26 08:52:05;;;;;;;4.10;2.85;;;;;;;27.96;56.13;98314.94;4950817;28;102719;-60
2021/07/26 08:54:33;;;;;;;5.03;3.22;;;;;;;28.10;56.84;98322.69;4953160;28;103725;-61
2021/07/26 08:57:03;;;;;;;3.13;2.83;;;;;;;29.87;54.89;98322.22;4955093;28;103547;-61
2021/07/26 08:59:32;;;;;;;3.15;2.85;;;;;;;30.18;51.70;98322.78;4955613;28;103252;-60
2021/07/26 09:02:01;;;;;;;5.00;3.30;;;;;;;29.30;51.66;98323.22;4956529;28;102584;-61
2021/07/26 09:04:30;;;;;;;5.05;3.22;;;;;;;29.27;54.07;98329.13;4945894;28;102998;-61
2021/07/26 09:06:58;;;;;;;3.20;2.88;;;;;;;29.37;54.36;98323.91;4953865;28;103615;-61
2021/07/26 09:09:43;;;;;;;5.78;3.47;;;;;;;29.62;52.98;98326.31;4939978;28;104423;-62
2021/07/26 09:12:28;;;;;;;3.88;3.47;;;;;;;30.36;53.17;98317.13;4932645;28;102749;-61
2021/07/26 09:14:57;;;;;;;3.90;3.05;;;;;;;30.34;52.64;98314.66;4955259;28;102676;-61
2021/07/26 09:17:25;;;;;;;4.82;3.03;;;;;;;30.58;51.05;98320.81;4953021;28;103418;-61
2021/07/26 09:19:58;;;;;;;6.63;3.60;;;;;;;28.77;52.62;98317.91;4955476;28;103838;-61
2021/07/26 09:22:31;;;;;;;5.10;3.20;;;;;;;29.43;52.24;98312.06;4957963;28;102625;-62
2021/07/26 09:25:19;;;;;;;4.47;3.47;;;;;;;30.43;51.12;98313.19;4917997;28;103158;-62
2021/07/26 09:28:04;;;;;;;4.57;3.10;;;;;;;30.31;51.31;98314.31;4950277;28;103601;-62
2021/07/26 09:30:37;;;;;;;4.15;3.53;;;;;;;30.68;49.28;98317.44;4957011;28;104373;-62
2021/07/26 09:33:15;;;;;;;3.75;3.42;;;;;;;30.86;51.00;98312.53;4954872;28;102847;-62
2021/07/26 09:35:43;;;;;;;4.20;3.40;;;;;;;29.95;50.05;98318.31;4957349;28;102582;-63
2021/07/26 09:38:13;;;;;;;3.38;3.08;;;;;;;29.78;51.88;98320.13;4956972;28;103576;-63
2021/07/26 09:40:47;;;;;;;3.80;3.20;;;;;;;29.50;51.85;98317.38;4956059;28;103135;-63
2021/07/26 09:43:22;;;;;;;4.85;3.53;;;;;;;28.71;51.85;98310.69;4955696;28;102697;-63
2021/07/26 09:45:51;;;;;;;4.63;3.35;;;;;;;27.77;55.36;98306.03;4956646;28;102561;-64
2021/07/26 09:48:20;;;;;;;5.28;3.10;;;;;;;28.83;53.56;98300.63;4955527;28;103249;-63
2021/07/26 09:50:49;;;;;;;3.13;2.83;;;;;;;30.04;51.11;98295.03;4954744;28;103214;-63
2021/07/26 09:53:19;;;;;;;5.78;3.50;;;;;;;30.46;49.06;98292.00;4949747;28;102717;-63
2021/07/26 09:55:48;;;;;;;4.20;3.20;;;;;;;30.15;50.17;98299.59;4957398;28;103939;-63
2021/07/26 09:58:19;;;;;;;5.07;3.25;;;;;;;29.37;50.03;98295.84;4947796;28;103847;-63
2021/07/26 10:00:48;;;;;;;4.50;3.00;;;;;;;30.25;50.12;98290.78;4957364;28;103274;-63
2021/07/26 10:03:16;;;;;;;3.03;2.72;;;;;;;31.04;50.29;98292.38;4961646;28;103166;-63
2021/07/26 10:05:45;;;;;;;4.05;2.70;;;;;;;30.68;50.00;98282.00;4959782;28;102718;-63
2021/07/26 10:08:13;;;;;;;4.10;3.70;;;;;;;31.19;49.60;98294.47;4956125;28;103449;-63
2021/07/26 10:10:41;;;;;;;3.90;3.50;;;;;;;30.97;47.69;98280.81;4958561;28;103260;-63
2021/07/26 10:13:10;;;;;;;3.72;3.30;;;;;;;30.61;48.10;98276.69;4939117;28;103085;-64
2021/07/26 10:15:40;;;;;;;3.80;3.08;;;;;;;31.14;47.84;98281.59;4935129;28;102923;-64
2021/07/26 10:18:08;;;;;;;3.40;3.10;;;;;;;31.97;45.98;98267.56;4953384;28;103369;-63
2021/07/26 10:20:41;;;;;;;3.70;3.20;;;;;;;30.97;46.32;98272.63;4936864;28;104478;-63
2021/07/26 10:23:14;;;;;;;3.35;3.05;;;;;;;31.69;46.47;98270.59;4959252;28;102707;-62
2021/07/26 10:25:47;;;;;;;3.33;3.03;;;;;;;31.60;46.58;98274.00;4960449;28;102637;-62
2021/07/26 10:28:26;;;;;;;4.00;3.67;;;;;;;31.40;47.90;98274.56;4950453;28;102985;-62
2021/07/26 10:30:56;;;;;;;6.15;3.40;;;;;;;31.18;47.46;98269.13;4957280;28;103189;-61
2021/07/26 10:33:24;;;;;;;3.90;3.50;;;;;;;30.64;49.15;98275.38;4950409;28;102692;-62
2021/07/26 10:35:54;;;;;;;3.60;3.30;;;;;;;30.37;49.26;98267.84;4957699;28;102763;-61
2021/07/26 10:38:56;;;;;;;4.32;3.22;;;;;;;30.44;48.42;98265.81;4956369;28;104428;-62
2021/07/26 10:42:10;;;;;;;3.25;3.00;;;;;;;30.15;48.67;98272.34;4942509;28;103488;-62
2021/07/26 10:44:45;;;;;;;6.30;3.42;;;;;;;30.77;47.58;98264.13;4960051;28;102610;-62
2021/07/26 10:47:21;;;;;;;4.20;2.90;;;;;;;31.91;46.02;98259.59;4957013;28;102811;-62
2021/07/26 10:50:12;;;;;;;3.72;3.08;;;;;;;32.27;45.30;98256.16;4944364;28;104384;-62
2021/07/26 10:52:48;;;;;;;5.53;3.13;;;;;;;31.02;45.93;98259.06;4942616;28;103071;-63
2021/07/26 10:55:53;;;;;;;4.35;2.80;;;;;;;31.73;44.65;98252.59;4934813;28;103074;-62
2021/07/26 10:59:03;;;;;;;3.03;2.75;;;;;;;30.04;46.71;98248.75;4953199;28;103923;-62
2021/07/26 11:02:02;;;;;;;6.10;3.10;;;;;;;29.79;48.15;98240.91;4923729;28;104649;-62
2021/07/26 11:04:37;;;;;;;3.92;3.15;;;;;;;30.39;48.98;98241.22;4948044;28;103921;-62
2021/07/26 11:07:09;;;;;;;2.90;2.70;;;;;;;30.71;48.01;98246.06;4959304;28;102650;-62
2021/07/26 11:09:42;;;;;;;3.42;3.13;;;;;;;31.56;45.64;98240.94;4959222;28;102615;-62
2021/07/26 11:12:11;;;;;;;3.17;2.88;;;;;;;31.79;45.10;98237.09;4951055;28;103598;-62
2021/07/26 11:14:40;;;;;;;5.43;3.00;;;;;;;30.80;47.41;98230.91;4957132;28;103237;-62
2021/07/26 11:17:11;;;;;;;3.03;2.75;;;;;;;31.68;46.22;98229.88;4957155;28;102665;-62
2021/07/26 11:19:55;;;;;;;2.92;2.58;;;;;;;32.19;45.61;98217.56;4956489;28;102759;-62
2021/07/26 11:23:00;;;;;;;4.63;3.08;;;;;;;32.02;44.21;98228.63;4955524;28;103412;-62
2021/07/26 11:25:29;;;;;;;3.13;2.80;;;;;;;31.06;48.24;98235.66;4936541;28;103426;-62
2021/07/26 11:27:57;;;;;;;3.17;2.90;;;;;;;32.12;45.96;98229.50;4951892;28;102587;-63
2021/07/26 11:30:26;;;;;;;3.10;2.80;;;;;;;31.31;45.36;98238.72;4959791;28;102706;-63
2021/07/26 11:32:55;;;;;;;2.67;2.47;;;;;;;31.38;45.70;98233.88;4959605;28;103308;-63
2021/07/26 11:35:33;;;;;;;2.78;2.58;;;;;;;31.28;44.94;98219.28;4932488;28;104207;-63
2021/07/26 11:38:05;;;;;;;2.65;2.45;;;;;;;31.14;46.65;98215.28;4956988;28;102698;-62